Time;durP1;ratioP1;P1;durP2;ratioP2;P2;SDS_P1;SDS_P2;PMS_P1;PMS_P2;Temp;Humidity;BMP_temperature;BMP_pressure;BME280_temperature;BME280_humidity;BME280_pressure;Samples;Min_cycle;Max_cycle;Signal;HPM_P1;HPM_P2
2022/05/18 00:00:58;;;;;;;35.33;23.65;;;18.10;99.90;;;;;;4976287;28;20050;-68
2022/05/18 00:03:31;;;;;;;34.72;22.35;;;18.10;99.90;;;;;;4976969;28;20043;-69
2022/05/18 00:06:00;;;;;;;41.70;24.40;;;18.10;99.90;;;;;;4960425;28;20046;-69
2022/05/18 00:08:27;;;;;;;35.83;24.10;;;18.00;99.90;;;;;;4960585;28;20066;-68
2022/05/18 00:10:53;;;;;;;37.85;23.63;;;18.00;99.90;;;;;;4975801;28;20057;-69
2022/05/18 00:13:19;;;;;;;36.78;23.60;;;17.90;99.90;;;;;;4976566;28;20554;-68
2022/05/18 00:15:47;;;;;;;33.58;22.50;;;17.90;99.90;;;;;;4975675;28;20054;-68
2022/05/18 00:18:13;;;;;;;33.30;22.20;;;17.80;99.90;;;;;;4976514;28;20105;-68
2022/05/18 00:20:39;;;;;;;33.45;22.88;;;17.80;99.90;;;;;;4960025;28;20074;-67
2022/05/18 00:23:06;;;;;;;35.17;23.08;;;17.80;99.90;;;;;;4976673;28;20058;-68
2022/05/18 00:25:36;;;;;;;34.08;22.02;;;17.70;99.90;;;;;;4975753;28;20534;-68
2022/05/18 00:28:03;;;;;;;29.67;20.95;;;17.70;99.90;;;;;;4959925;28;20137;-68
2022/05/18 00:30:30;;;;;;;32.08;20.73;;;17.60;99.90;;;;;;4975722;28;20049;-67
2022/05/18 00:32:57;;;;;;;32.33;20.67;;;17.60;99.90;;;;;;4960314;28;20129;-68
2022/05/18 00:35:25;;;;;;;28.25;20.10;;;17.60;99.90;;;;;;4943713;28;20046;-68
2022/05/18 00:37:51;;;;;;;32.03;20.45;;;17.50;99.90;;;;;;4976310;28;20046;-70
2022/05/18 00:40:19;;;;;;;29.83;20.30;;;17.50;99.90;;;;;;4975395;28;20069;-68
2022/05/18 00:42:45;;;;;;;29.02;19.05;;;17.50;99.90;;;;;;4980639;28;20046;-69
2022/05/18 00:45:13;;;;;;;24.85;18.25;;;17.50;99.90;;;;;;4962752;28;20052;-68
2022/05/18 00:47:39;;;;;;;24.98;18.48;;;17.40;99.90;;;;;;4960746;28;20046;-69
2022/05/18 00:50:10;;;;;;;28.60;18.33;;;17.40;99.90;;;;;;4975467;28;20042;-68
2022/05/18 00:52:42;;;;;;;26.05;17.90;;;17.40;99.90;;;;;;4988110;28;20397;-68
2022/05/18 00:55:12;;;;;;;25.67;17.80;;;17.30;99.90;;;;;;4959089;28;20487;-68
2022/05/18 00:57:59;;;;;;;27.15;17.17;;;17.30;99.90;;;;;;4975495;28;20129;-69
2022/05/18 01:00:25;;;;;;;25.50;16.63;;;17.30;99.90;;;;;;4964889;28;20093;-68
2022/05/18 01:02:58;;;;;;;25.77;17.38;;;17.30;99.90;;;;;;4943703;28;20054;-70
2022/05/18 01:05:30;;;;;;;27.40;16.92;;;17.20;99.90;;;;;;4991635;28;20061;-68
2022/05/18 01:07:58;;;;;;;25.60;17.98;;;17.20;99.90;;;;;;4975288;28;20046;-69
2022/05/18 01:10:28;;;;;;;23.23;15.95;;;17.20;99.90;;;;;;4991032;28;20050;-69
2022/05/18 01:12:56;;;;;;;24.55;16.80;;;17.20;99.90;;;;;;4975718;28;20518;-68
2022/05/18 01:15:23;;;;;;;25.83;16.63;;;17.20;99.90;;;;;;4978181;28;20046;-68
2022/05/18 01:17:56;;;;;;;26.77;16.75;;;17.20;99.90;;;;;;4994822;28;20045;-67
2022/05/18 01:20:25;;;;;;;22.95;15.75;;;17.20;99.90;;;;;;4993660;28;20088;-69
2022/05/18 01:22:57;;;;;;;22.80;15.43;;;17.10;99.90;;;;;;4993348;28;20049;-70
2022/05/18 01:25:44;;;;;;;22.80;16.05;;;17.10;99.90;;;;;;4975356;28;20050;-68
2022/05/18 01:28:11;;;;;;;23.65;16.33;;;17.00;99.90;;;;;;4975637;28;20075;-68
2022/05/18 01:30:42;;;;;;;23.65;16.08;;;17.00;99.90;;;;;;4974823;28;20081;-68
2022/05/18 01:33:10;;;;;;;27.95;15.05;;;16.90;99.90;;;;;;4959150;28;20042;-70
2022/05/18 01:35:41;;;;;;;21.88;15.35;;;16.90;99.90;;;;;;4975437;28;20052;-68
2022/05/18 01:38:07;;;;;;;21.13;14.95;;;16.80;99.90;;;;;;4981360;28;20381;-68
2022/05/18 01:40:50;;;;;;;21.30;14.45;;;16.80;99.90;;;;;;4977064;28;20046;-67
2022/05/18 01:43:30;;;;;;;22.75;14.50;;;16.80;99.90;;;;;;4994065;28;20516;-68
2022/05/18 01:46:03;;;;;;;23.07;14.70;;;16.80;99.90;;;;;;4976869;28;20062;-69
2022/05/18 01:48:33;;;;;;;19.00;13.70;;;16.80;99.90;;;;;;4974995;28;20057;-68
2022/05/18 01:51:00;;;;;;;21.95;14.18;;;16.80;99.90;;;;;;4974858;28;20501;-68
2022/05/18 01:53:28;;;;;;;22.98;14.23;;;16.80;99.90;;;;;;4942656;28;20050;-68
2022/05/18 01:55:54;;;;;;;18.88;13.27;;;16.70;99.90;;;;;;4977574;28;20124;-67
2022/05/18 01:58:21;;;;;;;17.42;13.23;;;16.70;99.90;;;;;;4962210;28;20065;-67
2022/05/18 02:00:47;;;;;;;19.50;12.95;;;16.70;99.90;;;;;;4993552;28;20394;-68
2022/05/18 02:03:13;;;;;;;18.42;12.98;;;16.70;99.90;;;;;;4993538;28;20088;-68
2022/05/18 02:05:40;;;;;;;18.65;13.02;;;16.60;99.90;;;;;;4977862;28;20038;-67
2022/05/18 02:08:07;;;;;;;22.30;12.40;;;16.60;99.90;;;;;;4993518;28;20085;-68
2022/05/18 02:10:33;;;;;;;18.38;12.88;;;16.60;99.90;;;;;;4960987;28;20088;-67
2022/05/18 02:12:59;;;;;;;20.55;12.57;;;16.60;99.90;;;;;;4961370;28;20049;-68
2022/05/18 02:15:25;;;;;;;19.17;12.82;;;16.60;99.90;;;;;;4975075;28;20050;-68
2022/05/18 02:17:52;;;;;;;20.35;12.13;;;16.60;99.90;;;;;;4963091;28;20042;-69
2022/05/18 02:20:19;;;;;;;20.70;12.60;;;16.60;99.90;;;;;;4977940;28;20454;-68
2022/05/18 02:22:45;;;;;;;20.10;12.38;;;16.50;99.90;;;;;;4978599;28;20053;-68
2022/05/18 02:25:12;;;;;;;19.00;12.48;;;16.50;99.90;;;;;;4962293;28;20050;-68
2022/05/18 02:27:38;;;;;;;17.10;11.95;;;16.50;99.90;;;;;;4978264;28;20107;-70
2022/05/18 02:30:05;;;;;;;18.80;12.57;;;16.50;99.90;;;;;;4977724;28;20046;-68
2022/05/18 02:32:31;;;;;;;19.40;11.75;;;16.50;99.90;;;;;;4962400;28;20096;-68
2022/05/18 02:34:57;;;;;;;14.63;11.85;;;16.50;99.90;;;;;;4945947;28;20038;-70
2022/05/18 02:37:23;;;;;;;19.45;11.95;;;16.50;99.90;;;;;;4978328;28;20066;-68
2022/05/18 02:39:49;;;;;;;17.58;13.02;;;16.40;99.90;;;;;;4978336;28;20049;-68
2022/05/18 02:42:15;;;;;;;18.63;12.65;;;16.40;99.90;;;;;;4962345;28;20049;-68
2022/05/18 02:44:41;;;;;;;16.58;11.90;;;16.30;99.90;;;;;;4997211;28;20059;-67
2022/05/18 02:47:07;;;;;;;17.85;12.32;;;16.30;99.90;;;;;;4982961;28;20129;-68
2022/05/18 02:49:33;;;;;;;19.33;12.60;;;16.30;99.90;;;;;;4985745;28;20041;-68
2022/05/18 02:51:59;;;;;;;17.40;12.02;;;16.30;99.90;;;;;;4982330;28;20435;-68
2022/05/18 02:57:10;;;;;;;19.45;11.95;;;16.30;99.90;;;;;;4964274;28;20050;-67
2022/05/18 02:59:36;;;;;;;18.50;12.50;;;16.30;99.90;;;;;;4977623;28;20045;-69
2022/05/18 03:02:03;;;;;;;18.00;12.63;;;16.20;99.90;;;;;;4993693;28;20038;-68
2022/05/18 03:04:30;;;;;;;18.58;12.73;;;16.20;99.90;;;;;;4977755;28;20202;-67
2022/05/18 03:06:57;;;;;;;18.08;12.07;;;16.20;99.90;;;;;;4977732;28;20053;-68
2022/05/18 03:09:23;;;;;;;17.05;11.98;;;16.20;99.90;;;;;;4945457;28;20390;-68
2022/05/18 03:11:50;;;;;;;18.00;13.02;;;16.10;99.90;;;;;;4977435;28;20050;-68
2022/05/18 03:14:16;;;;;;;25.30;12.82;;;16.10;99.90;;;;;;4961621;28;20545;-68
2022/05/18 03:16:44;;;;;;;16.50;12.13;;;16.10;99.90;;;;;;4977203;28;20054;-68
2022/05/18 03:19:14;;;;;;;19.48;12.45;;;16.10;99.90;;;;;;4977088;28;20050;-68
2022/05/18 03:24:30;;;;;;;18.77;12.50;;;16.00;99.90;;;;;;4976912;28;20137;-68
2022/05/18 03:26:56;;;;;;;20.60;13.15;;;16.00;99.90;;;;;;4975967;28;20133;-69
2022/05/18 03:29:22;;;;;;;19.92;12.70;;;16.00;99.90;;;;;;4976359;28;20153;-68
2022/05/18 03:31:48;;;;;;;18.60;12.60;;;15.90;99.90;;;;;;4975767;28;20451;-68
2022/05/18 03:34:15;;;;;;;17.35;13.02;;;15.80;99.90;;;;;;4985314;28;20371;-68
2022/05/18 03:36:41;;;;;;;19.35;13.20;;;15.80;99.90;;;;;;4989026;28;20042;-68
2022/05/18 03:39:08;;;;;;;20.05;13.02;;;15.80;99.90;;;;;;4976997;28;20104;-67
2022/05/18 03:41:34;;;;;;;21.88;12.88;;;15.80;99.90;;;;;;4976323;28;20133;-69
2022/05/18 03:44:02;;;;;;;23.17;13.50;;;15.70;99.90;;;;;;4989499;28;20124;-68
2022/05/18 03:46:28;;;;;;;22.02;13.68;;;15.70;99.90;;;;;;4934260;28;20055;-69
2022/05/18 03:48:55;;;;;;;18.95;12.80;;;15.60;99.90;;;;;;4976839;28;20061;-67
2022/05/18 03:51:21;;;;;;;18.80;13.20;;;15.60;99.90;;;;;;4960446;28;20057;-70
2022/05/18 03:53:47;;;;;;;20.42;12.93;;;15.60;99.90;;;;;;4977367;28;20411;-69
2022/05/18 03:56:15;;;;;;;20.52;13.63;;;15.60;99.90;;;;;;4976283;28;20161;-68
2022/05/18 03:58:41;;;;;;;21.27;13.43;;;15.60;99.90;;;;;;4976573;28;20054;-69
2022/05/18 04:01:09;;;;;;;25.90;14.75;;;15.60;99.90;;;;;;4960496;28;20121;-68
2022/05/18 04:03:44;;;;;;;23.67;15.23;;;15.60;99.90;;;;;;4993253;28;20064;-68
2022/05/18 04:06:12;;;;;;;22.15;14.30;;;15.60;99.90;;;;;;4995565;28;20077;-68
2022/05/18 04:08:38;;;;;;;18.85;13.93;;;15.60;99.90;;;;;;4995062;28;20046;-68
2022/05/18 04:11:05;;;;;;;21.02;13.90;;;15.60;99.90;;;;;;4978685;28;20077;-68
2022/05/18 04:13:32;;;;;;;22.52;14.55;;;15.60;99.90;;;;;;4995572;28;20046;-67
2022/05/18 04:15:58;;;;;;;20.45;13.73;;;15.60;99.90;;;;;;4979959;28;20052;-68
2022/05/18 04:18:25;;;;;;;18.85;13.45;;;15.60;99.90;;;;;;4995478;28;20080;-68
2022/05/18 04:20:53;;;;;;;18.80;13.90;;;15.50;99.90;;;;;;4978906;28;20045;-70
2022/05/18 04:23:20;;;;;;;21.42;14.10;;;15.50;99.90;;;;;;4976602;28;20042;-68
2022/05/18 04:25:46;;;;;;;19.35;14.20;;;15.50;99.90;;;;;;4975551;28;20038;-69
2022/05/18 04:28:14;;;;;;;20.20;13.55;;;15.60;99.90;;;;;;4960167;28;20081;-68
2022/05/18 04:30:43;;;;;;;20.83;14.07;;;15.60;99.90;;;;;;4975841;28;20050;-68
2022/05/18 04:33:15;;;;;;;21.83;13.55;;;15.70;99.90;;;;;;4962988;28;20045;-68
2022/05/18 04:35:42;;;;;;;23.98;14.30;;;15.70;99.90;;;;;;4994392;28;20053;-68
2022/05/18 04:38:08;;;;;;;18.77;13.07;;;15.70;99.90;;;;;;5010776;28;20049;-69
2022/05/18 04:40:34;;;;;;;16.63;12.45;;;15.70;99.90;;;;;;4977829;28;20379;-67
2022/05/18 04:43:00;;;;;;;18.48;12.45;;;15.80;99.90;;;;;;4978839;28;20088;-68
2022/05/18 04:45:27;;;;;;;18.45;12.40;;;15.80;99.90;;;;;;4978198;28;20053;-67
2022/05/18 04:47:53;;;;;;;18.50;12.32;;;15.90;99.90;;;;;;4975847;28;20054;-67
2022/05/18 04:50:21;;;;;;;16.88;11.73;;;16.00;99.90;;;;;;4975231;28;20046;-68
2022/05/18 04:52:48;;;;;;;18.52;11.93;;;16.00;99.90;;;;;;4959265;28;20104;-67
2022/05/18 04:55:15;;;;;;;19.42;12.30;;;16.10;99.90;;;;;;4975437;28;20046;-68
2022/05/18 04:57:41;;;;;;;15.68;11.68;;;16.20;99.90;;;;;;4975773;28;20034;-67
2022/05/18 05:00:11;;;;;;;17.55;11.55;;;16.20;99.90;;;;;;4958823;28;20074;-67
2022/05/18 05:02:38;;;;;;;19.42;11.45;;;16.30;99.90;;;;;;4975605;28;20038;-69
2022/05/18 05:05:10;;;;;;;18.83;10.90;;;16.40;99.90;;;;;;4975463;28;20038;-70
2022/05/18 05:07:37;;;;;;;17.90;10.68;;;16.40;99.90;;;;;;4959366;28;20041;-67
2022/05/18 05:10:04;;;;;;;14.00;10.43;;;16.50;99.90;;;;;;4975335;28;20478;-70
2022/05/18 05:12:30;;;;;;;16.13;10.68;;;16.50;99.90;;;;;;4975650;28;20077;-68
2022/05/18 05:14:56;;;;;;;17.08;10.98;;;16.70;99.90;;;;;;4943121;28;20419;-67
2022/05/18 05:17:22;;;;;;;17.45;10.77;;;16.80;99.90;;;;;;4975545;28;20092;-69
2022/05/18 05:19:48;;;;;;;16.95;11.27;;;16.80;99.90;;;;;;4975092;28;20137;-69
2022/05/18 05:22:14;;;;;;;12.93;10.90;;;16.90;99.90;;;;;;4975502;28;20042;-68
2022/05/18 05:24:40;;;;;;;15.27;10.55;;;17.00;99.90;;;;;;4975263;28;20045;-68
2022/05/18 05:27:06;;;;;;;17.20;10.20;;;17.00;99.90;;;;;;4974905;28;20439;-67
2022/05/18 05:29:32;;;;;;;14.07;11.07;;;17.10;99.90;;;;;;4975519;28;20050;-69
2022/05/18 05:32:05;;;;;;;16.95;11.18;;;17.20;99.90;;;;;;4975061;28;20406;-68
2022/05/18 05:34:31;;;;;;;18.45;11.77;;;17.20;99.90;;;;;;4958936;28;20042;-68
2022/05/18 05:36:57;;;;;;;14.07;10.75;;;17.30;99.90;;;;;;4975135;28;20046;-68
2022/05/18 05:39:22;;;;;;;17.55;10.80;;;17.30;99.90;;;;;;4974959;28;20502;-69
2022/05/18 05:41:48;;;;;;;15.85;11.13;;;17.40;99.90;;;;;;4975019;28;20046;-68
2022/05/18 05:44:14;;;;;;;14.70;10.68;;;17.40;99.90;;;;;;5008328;28;20046;-69
2022/05/18 05:46:40;;;;;;;15.68;11.48;;;17.40;99.90;;;;;;4983508;28;20158;-69
2022/05/18 05:49:06;;;;;;;14.57;9.82;;;17.50;99.90;;;;;;4974166;28;20050;-67
2022/05/18 05:51:32;;;;;;;17.70;10.40;;;17.60;99.90;;;;;;4978599;28;20479;-70
2022/05/18 05:53:58;;;;;;;16.52;10.90;;;17.70;99.90;;;;;;4978705;28;20507;-69
2022/05/18 05:56:24;;;;;;;15.30;10.70;;;17.90;99.90;;;;;;4978825;28;20446;-69
2022/05/18 05:58:50;;;;;;;20.65;10.35;;;18.00;99.90;;;;;;4946760;28;20050;-69
2022/05/18 06:01:17;;;;;;;15.30;10.60;;;18.10;99.90;;;;;;4962051;28;20039;-68
2022/05/18 06:03:44;;;;;;;17.20;10.55;;;18.20;99.90;;;;;;4978979;28;20050;-68
2022/05/18 06:06:10;;;;;;;16.13;11.30;;;18.30;99.90;;;;;;4962673;28;20047;-69
2022/05/18 06:08:37;;;;;;;13.93;10.13;;;18.40;99.90;;;;;;4979312;28;20038;-68
2022/05/18 06:11:05;;;;;;;18.20;10.73;;;18.50;99.90;;;;;;4961791;28;20049;-69
2022/05/18 06:13:34;;;;;;;15.27;10.75;;;18.60;99.90;;;;;;4982289;28;20077;-68
2022/05/18 06:16:01;;;;;;;17.52;10.68;;;18.70;99.90;;;;;;4997742;28;20052;-69
2022/05/18 06:18:29;;;;;;;14.82;9.68;;;18.90;99.90;;;;;;4980441;28;20054;-67
2022/05/18 06:20:56;;;;;;;16.77;11.13;;;19.00;99.90;;;;;;4977701;28;20046;-68
2022/05/18 06:23:23;;;;;;;16.27;9.88;;;19.10;99.90;;;;;;4978964;28;20082;-69
2022/05/18 06:25:49;;;;;;;16.35;11.02;;;19.10;99.90;;;;;;4962107;28;20061;-68
2022/05/18 06:28:15;;;;;;;14.32;10.13;;;19.20;99.90;;;;;;4977810;28;20038;-68
2022/05/18 06:30:41;;;;;;;14.98;10.23;;;19.30;99.90;;;;;;4977542;28;20438;-68
2022/05/18 06:33:07;;;;;;;14.02;10.45;;;19.40;99.90;;;;;;4978058;28;20057;-69
2022/05/18 06:35:33;;;;;;;14.23;10.35;;;19.50;99.90;;;;;;4977810;28;20394;-69
2022/05/18 06:38:00;;;;;;;14.13;10.60;;;19.50;99.90;;;;;;4946092;28;20109;-68
2022/05/18 06:41:21;;;;;;;14.73;10.55;;;19.70;99.90;;;;;;4977368;28;20046;-68
2022/05/18 06:43:12;;;;;;;13.93;10.57;;;19.80;99.90;;;;;;4986657;28;20545;-68
2022/05/18 06:45:38;;;;;;;13.60;10.93;;;19.90;99.90;;;;;;4994960;28;20033;-69
2022/05/18 06:48:04;;;;;;;15.80;11.55;;;19.90;99.90;;;;;;4977512;28;20149;-70
2022/05/18 06:50:30;;;;;;;16.67;10.85;;;20.00;99.90;;;;;;4977491;28;20061;-68
2022/05/18 06:52:56;;;;;;;15.60;11.27;;;20.00;99.90;;;;;;4977681;28;20452;-69
2022/05/18 06:55:22;;;;;;;14.40;11.10;;;20.20;99.90;;;;;;4977451;28;20402;-68
2022/05/18 06:57:48;;;;;;;14.95;11.80;;;20.30;99.90;;;;;;4959448;28;20052;-69
2022/05/18 07:00:15;;;;;;;15.15;11.07;;;20.30;99.90;;;;;;4978623;28;20042;-70
2022/05/18 07:02:43;;;;;;;16.23;11.90;;;20.40;99.90;;;;;;4976844;28;20069;-68
2022/05/18 07:05:09;;;;;;;16.88;10.68;;;20.50;99.90;;;;;;4977566;28;20394;-68
2022/05/18 07:07:37;;;;;;;14.48;11.77;;;20.60;99.90;;;;;;4977692;28;20112;-69
2022/05/18 07:10:04;;;;;;;14.45;11.68;;;20.70;99.90;;;;;;4977004;28;20368;-70
2022/05/18 07:12:30;;;;;;;16.98;11.98;;;20.70;99.90;;;;;;4977071;28;20050;-69
2022/05/18 07:14:57;;;;;;;15.50;11.57;;;20.80;99.90;;;;;;4977886;28;20049;-68
2022/05/18 07:17:22;;;;;;;15.60;11.18;;;20.90;99.90;;;;;;4977514;28;20060;-69
2022/05/18 07:19:48;;;;;;;14.73;10.80;;;21.00;99.90;;;;;;4960768;28;20045;-69
2022/05/18 07:22:14;;;;;;;15.00;10.30;;;21.10;99.90;;;;;;4975559;28;20137;-69
2022/05/18 07:24:40;;;;;;;14.15;11.43;;;21.20;99.90;;;;;;4993489;28;20046;-68
2022/05/18 07:27:06;;;;;;;15.73;11.93;;;21.30;99.90;;;;;;4961166;28;20042;-70
2022/05/18 07:29:34;;;;;;;17.88;11.70;;;21.30;99.90;;;;;;4977256;28;20049;-69
2022/05/18 07:32:08;;;;;;;17.48;11.35;;;21.50;99.90;;;;;;4960543;28;20498;-69
2022/05/18 07:34:36;;;;;;;16.52;12.00;;;21.60;99.90;;;;;;4977643;28;20367;-69
2022/05/18 07:37:03;;;;;;;14.13;11.95;;;21.60;99.90;;;;;;4976236;28;20078;-72
2022/05/18 07:39:29;;;;;;;18.67;11.45;;;21.80;99.90;;;;;;4976401;28;20050;-69
2022/05/18 07:41:56;;;;;;;14.45;11.40;;;21.80;99.90;;;;;;4960975;28;20097;-69
2022/05/18 07:44:23;;;;;;;16.40;12.50;;;21.80;99.90;;;;;;4994805;28;20046;-70
2022/05/18 07:46:49;;;;;;;13.35;11.55;;;21.90;99.90;;;;;;4963920;28;20132;-69
2022/05/18 07:49:16;;;;;;;12.45;11.00;;;22.10;99.90;;;;;;4980420;28;20096;-69
2022/05/18 07:51:43;;;;;;;16.45;11.82;;;22.20;99.90;;;;;;4984057;28;20061;-69
2022/05/18 07:54:09;;;;;;;16.10;12.00;;;22.30;99.90;;;;;;4976628;28;20089;-69
2022/05/18 07:56:36;;;;;;;15.50;11.68;;;22.40;99.90;;;;;;4976438;28;20125;-69
2022/05/18 07:59:06;;;;;;;14.13;11.27;;;22.40;99.90;;;;;;4976539;28;20045;-70
2022/05/18 08:01:33;;;;;;;13.88;10.55;;;22.60;99.90;;;;;;4960244;28;20378;-72
2022/05/18 08:03:59;;;;;;;14.85;11.27;;;22.70;99.90;;;;;;4995542;28;20065;-70
2022/05/18 08:06:25;;;;;;;15.50;10.73;;;22.80;99.90;;;;;;4995700;28;20037;-70
2022/05/18 08:08:53;;;;;;;15.15;11.20;;;22.90;99.90;;;;;;4995069;28;20138;-72
2022/05/18 08:16:49;;;;;;;14.73;11.38;;;23.20;99.90;;;;;;4981187;28;20379;-69
2022/05/18 08:19:16;;;;;;;15.43;10.85;;;23.20;99.90;;;;;;4995738;28;20046;-69
2022/05/18 08:21:42;;;;;;;13.05;11.35;;;23.30;99.90;;;;;;4994277;28;20068;-70
2022/05/18 08:24:09;;;;;;;14.93;12.00;;;23.30;99.90;;;;;;4978814;28;20140;-69
2022/05/18 08:26:35;;;;;;;14.00;11.45;;;23.40;99.90;;;;;;4994337;28;20096;-69
2022/05/18 08:29:03;;;;;;;15.13;11.45;;;23.50;99.90;;;;;;4978927;28;20045;-69
2022/05/18 08:31:30;;;;;;;15.45;10.90;;;23.60;99.90;;;;;;4994498;28;20052;-70
2022/05/18 08:33:56;;;;;;;13.15;10.27;;;23.90;99.90;;;;;;4979118;28;20045;-69
2022/05/18 08:36:26;;;;;;;14.85;10.68;;;24.10;99.90;;;;;;4994617;28;20042;-71
2022/05/18 08:38:54;;;;;;;12.88;9.85;;;24.30;99.90;;;;;;4994638;28;20469;-69
2022/05/18 08:41:22;;;;;;;13.38;10.52;;;24.40;99.90;;;;;;4994525;28;20038;-70
2022/05/18 08:43:52;;;;;;;12.57;8.73;;;24.50;99.90;;;;;;4994620;28;20449;-70
2022/05/18 08:46:34;;;;;;;13.10;10.32;;;24.70;99.90;;;;;;4975981;28;20039;-69
2022/05/18 08:49:04;;;;;;;14.05;10.10;;;24.90;99.90;;;;;;4991713;28;20058;-70
2022/05/18 08:51:40;;;;;;;12.13;10.32;;;25.10;99.90;;;;;;4976276;28;20437;-70
2022/05/18 08:54:25;;;;;;;11.88;9.70;;;25.20;99.90;;;;;;4994900;28;20062;-69
2022/05/18 08:56:55;;;;;;;12.45;9.25;;;25.30;99.90;;;;;;4976626;28;20073;-71
2022/05/18 08:59:32;;;;;;;14.52;9.40;;;25.50;99.90;;;;;;4975769;28;20108;-71
2022/05/18 09:01:59;;;;;;;10.32;8.35;;;25.60;99.90;;;;;;4975866;28;20394;-71
2022/05/18 09:04:37;;;;;;;12.18;9.25;;;25.70;99.90;;;;;;4975490;28;20057;-70
2022/05/18 09:07:11;;;;;;;11.68;9.60;;;25.50;99.90;;;;;;4975084;28;20461;-71
2022/05/18 09:10:13;;;;;;;11.88;9.07;;;25.60;99.90;;;;;;4974749;28;20049;-70
2022/05/18 09:12:45;;;;;;;12.18;8.38;;;25.60;99.90;;;;;;4994340;28;20367;-70
2022/05/18 09:15:17;;;;;;;12.25;8.20;;;25.80;99.90;;;;;;4993788;28;20491;-69
2022/05/18 09:18:01;;;;;;;11.15;7.88;;;25.90;99.90;;;;;;4994256;28;20112;-70
2022/05/18 09:20:44;;;;;;;9.70;7.95;;;26.20;99.90;;;;;;4993884;28;20038;-70
2022/05/18 09:23:19;;;;;;;11.23;7.30;;;26.30;99.90;;;;;;4994092;28;20042;-70
2022/05/18 09:26:04;;;;;;;10.65;6.80;;;26.40;99.90;;;;;;4993540;28;20124;-70
2022/05/18 09:28:44;;;;;;;10.00;7.28;;;26.40;98.10;;;;;;4994107;28;20429;-70
2022/05/18 09:31:16;;;;;;;11.85;7.65;;;26.40;99.90;;;;;;4993515;28;20104;-70
2022/05/18 09:34:03;;;;;;;12.27;7.93;;;26.60;99.90;;;;;;4994215;28;20057;-69
2022/05/18 09:36:40;;;;;;;10.77;8.60;;;26.60;99.90;;;;;;4994113;28;20435;-70
2022/05/18 09:39:10;;;;;;;9.55;7.88;;;26.90;99.90;;;;;;4993636;28;20061;-69
2022/05/18 09:41:38;;;;;;;;;;;27.00;99.90;;;;;;4994560;28;20593;-69
2022/05/18 09:44:26;;;;;;;11.65;7.40;;;27.10;99.90;;;;;;4991474;28;20361;-70
2022/05/18 09:46:52;;;;;;;10.00;6.82;;;27.20;99.90;;;;;;4959207;28;20057;-72
2022/05/18 09:49:59;;;;;;;9.02;7.15;;;27.20;99.90;;;;;;4942831;28;20054;-70
2022/05/18 09:52:28;;;;;;;10.50;7.45;;;27.30;98.00;;;;;;4916729;29;20107;-70
2022/05/18 09:54:58;;;;;;;7.22;6.47;;;27.20;99.90;;;;;;4964053;28;20129;-70
2022/05/18 09:57:32;;;;;;;8.65;7.72;;;27.20;99.90;;;;;;4975141;28;20109;-71
2022/05/18 10:00:06;;;;;;;7.45;6.75;;;27.40;99.90;;;;;;4958543;28;20072;-70
2022/05/18 10:08:19;;;;;;;9.65;6.38;;;27.50;93.60;;;;;;4993767;28;20388;-70
2022/05/18 10:10:46;;;;;;;9.73;6.22;;;27.60;97.10;;;;;;4992985;28;20042;-69
2022/05/18 10:13:18;;;;;;;8.50;6.25;;;27.70;89.00;;;;;;4993328;28;20411;-69
2022/05/18 10:15:47;;;;;;;8.20;6.30;;;27.90;86.80;;;;;;4993850;28;20046;-71
2022/05/18 10:18:28;;;;;;;8.85;6.45;;;28.20;81.90;;;;;;4977339;28;20038;-70
2022/05/18 10:21:24;;;;;;;8.93;5.95;;;28.40;85.30;;;;;;4992888;28;20483;-70
2022/05/18 10:24:02;;;;;;;11.68;6.00;;;28.50;75.60;;;;;;4992534;28;20545;-70
2022/05/18 10:26:40;;;;;;;8.23;5.55;;;28.50;69.00;;;;;;4977134;28;20054;-70
2022/05/18 10:29:22;;;;;;;7.32;5.57;;;28.20;68.10;;;;;;4974145;28;20046;-71
2022/05/18 10:32:09;;;;;;;7.70;5.65;;;28.40;76.20;;;;;;4994118;28;20042;-70
2022/05/18 10:34:45;;;;;;;8.13;5.40;;;28.50;68.00;;;;;;4984905;28;20042;-70
2022/05/18 10:37:22;;;;;;;6.97;5.80;;;28.60;66.60;;;;;;4994789;28;20052;-69
2022/05/18 10:39:48;;;;;;;9.48;5.00;;;28.70;71.50;;;;;;4980254;28;20050;-70
2022/05/18 10:42:24;;;;;;;9.55;5.30;;;28.80;70.80;;;;;;4996724;28;20107;-70
2022/05/18 10:44:52;;;;;;;7.90;5.22;;;28.90;70.10;;;;;;4988579;28;20118;-70
2022/05/18 10:47:35;;;;;;;11.75;5.80;;;29.10;64.90;;;;;;4977976;28;20096;-70
2022/05/18 10:50:24;;;;;;;8.93;6.05;;;29.00;63.80;;;;;;4977222;28;20478;-70
2022/05/18 10:53:00;;;;;;;8.15;5.20;;;29.20;61.20;;;;;;4997322;28;20536;-70
2022/05/18 10:55:29;;;;;;;7.88;4.95;;;29.10;61.80;;;;;;4980902;28;20104;-70
2022/05/18 10:58:04;;;;;;;9.10;5.82;;;29.40;65.40;;;;;;4987148;28;20042;-70
2022/05/18 11:00:40;;;;;;;9.48;4.63;;;29.60;64.60;;;;;;4961948;28;20542;-70
2022/05/18 11:03:22;;;;;;;8.13;6.28;;;29.90;63.20;;;;;;4962071;28;20042;-70
2022/05/18 11:06:02;;;;;;;9.57;6.00;;;29.60;63.00;;;;;;5002545;28;20422;-70
2022/05/18 11:08:31;;;;;;;8.50;5.78;;;29.40;62.60;;;;;;4980280;28;20049;-69
2022/05/18 11:10:56;;;;;;;8.10;5.80;;;29.60;63.30;;;;;;4960777;28;20038;-70
2022/05/18 11:14:01;;;;;;;9.60;6.20;;;29.70;63.30;;;;;;4977229;28;20061;-70
2022/05/18 11:16:44;;;;;;;8.77;6.22;;;29.70;62.90;;;;;;4977595;28;20054;-70
2022/05/18 11:19:46;;;;;;;10.27;6.38;;;29.60;65.10;;;;;;4976949;28;20423;-70
2022/05/18 11:22:34;;;;;;;10.10;6.05;;;29.40;60.90;;;;;;4996550;28;20125;-69
2022/05/18 11:25:09;;;;;;;10.02;6.13;;;29.50;60.10;;;;;;4977949;28;20426;-68
2022/05/18 11:27:45;;;;;;;8.38;6.50;;;29.30;62.80;;;;;;4977052;28;20046;-68
2022/05/18 11:30:17;;;;;;;9.55;6.07;;;29.30;63.30;;;;;;4976735;28;20042;-68
2022/05/18 11:33:18;;;;;;;14.32;7.18;;;29.40;63.90;;;;;;4977309;28;20443;-66
2022/05/18 11:36:00;;;;;;;9.68;7.30;;;29.20;62.30;;;;;;4977317;28;20056;-66
2022/05/18 11:38:52;;;;;;;9.20;6.07;;;29.00;67.20;;;;;;4960949;28;20082;-67
2022/05/18 11:41:28;;;;;;;7.60;6.80;;;29.50;70.20;;;;;;4976172;28;20129;-67
2022/05/18 11:44:09;;;;;;;9.40;5.97;;;29.30;69.00;;;;;;4989965;28;20053;-67
2022/05/18 11:46:39;;;;;;;11.55;5.28;;;29.50;66.20;;;;;;4976639;28;20042;-67
2022/05/18 11:49:20;;;;;;;8.60;5.20;;;29.70;63.90;;;;;;4976038;28;20185;-67
2022/05/18 11:52:15;;;;;;;6.40;5.28;;;30.10;61.20;;;;;;4976953;28;20082;-67
2022/05/18 11:54:52;;;;;;;7.57;6.47;;;30.60;61.60;;;;;;4995757;28;20414;-67
2022/05/18 11:57:40;;;;;;;8.88;6.57;;;30.40;61.70;;;;;;4995311;28;20496;-68
2022/05/18 12:03:24;;;;;;;8.30;7.15;;;30.40;59.60;;;;;;4995826;28;20037;-68
2022/05/18 12:06:27;;;;;;;9.45;5.75;;;30.60;62.80;;;;;;4995772;28;20052;-68
2022/05/18 12:09:34;;;;;;;5.93;5.32;;;30.30;59.20;;;;;;5012466;28;20061;-68
2022/05/18 12:12:23;;;;;;;11.30;5.93;;;29.90;60.80;;;;;;5008911;28;20058;-68
2022/05/18 12:15:05;;;;;;;7.47;5.47;;;29.60;63.80;;;;;;4978888;28;20096;-67
2022/05/18 12:17:38;;;;;;;9.27;5.90;;;29.80;63.30;;;;;;4979568;28;20042;-68
2022/05/18 12:20:31;;;;;;;6.88;5.80;;;29.70;64.40;;;;;;4994595;28;20073;-68
2022/05/18 12:23:04;;;;;;;9.18;6.85;;;29.50;64.50;;;;;;4994863;28;20429;-68
2022/05/18 12:25:31;;;;;;;8.18;5.72;;;29.60;62.50;;;;;;4995031;28;20068;-68
2022/05/18 12:28:01;;;;;;;7.07;5.60;;;29.70;62.90;;;;;;4994916;28;20674;-68
2022/05/18 12:30:29;;;;;;;9.20;5.53;;;29.50;62.00;;;;;;4994698;28;20084;-68
2022/05/18 12:32:56;;;;;;;8.05;5.95;;;29.40;63.50;;;;;;4994670;28;20050;-68
2022/05/18 12:35:35;;;;;;;7.38;6.03;;;29.40;63.90;;;;;;4994518;28;20046;-67
2022/05/18 12:38:19;;;;;;;10.13;6.78;;;29.20;65.30;;;;;;4991917;28;20046;-68
2022/05/18 12:41:02;;;;;;;9.10;6.32;;;29.00;67.00;;;;;;5005384;28;20115;-67
2022/05/18 12:43:31;;;;;;;10.75;6.22;;;29.30;68.00;;;;;;4995003;28;20041;-67
2022/05/18 12:46:04;;;;;;;7.97;6.00;;;29.20;64.70;;;;;;5011583;28;20380;-67
2022/05/18 12:48:47;;;;;;;9.77;6.75;;;29.80;65.50;;;;;;4982588;28;20061;-69
2022/05/18 12:51:29;;;;;;;7.88;5.53;;;30.30;67.40;;;;;;4994574;28;20517;-68
2022/05/18 12:54:10;;;;;;;8.25;5.40;;;30.90;60.10;;;;;;4994112;28;20372;-68
2022/05/18 12:56:35;;;;;;;6.60;5.22;;;31.40;59.60;;;;;;4994296;28;20057;-67
2022/05/18 12:59:12;;;;;;;6.88;4.45;;;31.20;60.30;;;;;;4993560;28;20057;-67
2022/05/18 13:01:42;;;;;;;8.02;4.50;;;30.80;59.10;;;;;;4994088;28;20042;-67
2022/05/18 13:04:13;;;;;;;6.07;4.53;;;30.40;58.90;;;;;;5011503;28;20044;-67
2022/05/18 13:06:44;;;;;;;5.75;4.60;;;30.20;58.20;;;;;;4980434;28;20046;-67
2022/05/18 13:09:25;;;;;;;6.15;4.75;;;29.90;59.60;;;;;;4975073;28;20093;-68
2022/05/18 13:11:59;;;;;;;7.30;5.50;;;29.70;58.20;;;;;;4975823;28;20100;-68